Time;durP1;ratioP1;P1;durP2;ratioP2;P2;SDS_P1;SDS_P2;PMS_P1;PMS_P2;Temp;Humidity;BMP_temperature;BMP_pressure;BME280_temperature;BME280_humidity;BME280_pressure;Samples;Min_cycle;Max_cycle;Signal;HPM_P1;HPM_P2
2024/03/19 00:00:12;;;;;;;3.75;3.40;;;;;;;;;;1031848;28;20467;-76
2024/03/19 00:00:44;;;;;;;2.33;1.67;;;;;;;;;;1027117;28;20071;-76
2024/03/19 00:01:14;;;;;;;18.60;4.07;;;;;;;;;;1025301;28;20022;-76
2024/03/19 00:01:45;;;;;;;2.95;2.22;;;;;;;;;;1029019;28;20029;-76
2024/03/19 00:02:15;;;;;;;1.45;1.35;;;;;;;;;;1034193;28;20531;-76
2024/03/19 00:02:46;;;;;;;4.88;2.63;;;;;;;;;;1035858;28;20025;-76
2024/03/19 00:03:17;;;;;;;7.07;1.95;;;;;;;;;;1035558;28;20026;-76
2024/03/19 00:03:47;;;;;;;1.25;1.10;;;;;;;;;;1034879;28;20124;-75
2024/03/19 00:04:18;;;;;;;12.68;3.60;;;;;;;;;;1034041;28;20081;-75
2024/03/19 00:04:48;;;;;;;5.70;1.63;;;;;;;;;;1029522;28;20018;-75
2024/03/19 00:05:20;;;;;;;7.47;3.00;;;;;;;;;;1025230;28;20027;-75
2024/03/19 00:05:50;;;;;;;15.95;2.25;;;;;;;;;;1026046;28;20023;-75
2024/03/19 00:06:21;;;;;;;13.45;3.13;;;;;;;;;;1026164;28;20019;-75
2024/03/19 00:06:51;;;;;;;3.80;2.67;;;;;;;;;;1029534;28;20023;-75
2024/03/19 00:07:22;;;;;;;1.58;1.40;;;;;;;;;;1033606;28;20108;-75
2024/03/19 00:07:52;;;;;;;1.38;0.82;;;;;;;;;;1033978;28;20391;-75
2024/03/19 00:08:23;;;;;;;1.65;1.55;;;;;;;;;;1030618;28;20026;-75
2024/03/19 00:08:53;;;;;;;1.58;1.00;;;;;;;;;;1032818;28;20030;-75
2024/03/19 00:09:23;;;;;;;0.68;0.68;;;;;;;;;;1029003;28;20141;-75
2024/03/19 00:09:54;;;;;;;10.80;4.20;;;;;;;;;;1027894;28;20138;-75
2024/03/19 00:10:25;;;;;;;2.10;1.92;;;;;;;;;;1029686;28;20486;-76
2024/03/19 00:10:55;;;;;;;2.45;2.10;;;;;;;;;;1031954;28;20034;-74
2024/03/19 00:11:26;;;;;;;4.38;2.70;;;;;;;;;;1033490;28;20018;-74
2024/03/19 00:11:57;;;;;;;1.05;0.90;;;;;;;;;;1030464;28;20114;-75
2024/03/19 00:12:30;;;;;;;3.75;2.78;;;;;;;;;;1027877;28;20039;-76
2024/03/19 00:13:00;;;;;;;1.55;1.45;;;;;;;;;;1026407;28;20037;-75
2024/03/19 00:13:31;;;;;;;1.75;1.38;;;;;;;;;;1027489;28;20110;-75
2024/03/19 00:14:02;;;;;;;0.30;0.30;;;;;;;;;;1027642;28;20033;-75
2024/03/19 00:14:33;;;;;;;2.10;1.92;;;;;;;;;;1028874;28;20022;-75
2024/03/19 00:15:05;;;;;;;7.30;2.38;;;;;;;;;;1026405;28;20361;-75
2024/03/19 00:15:35;;;;;;;0.47;0.47;;;;;;;;;;1026059;28;20074;-75
2024/03/19 00:16:06;;;;;;;0.50;0.50;;;;;;;;;;1025647;28;20085;-75
2024/03/19 00:16:36;;;;;;;3.58;3.28;;;;;;;;;;1024355;28;20515;-75
2024/03/19 00:17:07;;;;;;;8.10;2.38;;;;;;;;;;1024076;28;20027;-75
2024/03/19 00:17:37;;;;;;;1.40;1.30;;;;;;;;;;1023067;28;20107;-75
2024/03/19 00:18:08;;;;;;;8.88;2.28;;;;;;;;;;1025322;28;20027;-75
2024/03/19 00:18:38;;;;;;;0.32;0.32;;;;;;;;;;1033290;28;20024;-75
2024/03/19 00:19:09;;;;;;;1.65;1.55;;;;;;;;;;1029576;28;20102;-75
2024/03/19 00:19:39;;;;;;;8.45;3.72;;;;;;;;;;1029683;28;20054;-76
2024/03/19 00:20:10;;;;;;;21.55;2.08;;;;;;;;;;1025663;28;20574;-76
2024/03/19 00:20:40;;;;;;;2.75;2.38;;;;;;;;;;1027961;28;20039;-76
2024/03/19 00:21:11;;;;;;;2.10;1.90;;;;;;;;;;1027995;28;20476;-77
2024/03/19 00:21:41;;;;;;;23.77;2.08;;;;;;;;;;1028070;28;20054;-77
2024/03/19 00:22:12;;;;;;;3.67;3.15;;;;;;;;;;1033266;28;20050;-77
2024/03/19 00:22:42;;;;;;;6.88;3.17;;;;;;;;;;1033851;28;20018;-77
2024/03/19 00:23:13;;;;;;;10.13;2.50;;;;;;;;;;1033897;28;20364;-77
2024/03/19 00:23:43;;;;;;;2.40;1.63;;;;;;;;;;1034460;28;20018;-77
2024/03/19 00:24:14;;;;;;;4.80;2.88;;;;;;;;;;1034294;28;20022;-76
2024/03/19 00:24:44;;;;;;;3.28;2.30;;;;;;;;;;1032837;28;20162;-77
2024/03/19 00:25:15;;;;;;;4.93;3.40;;;;;;;;;;1027058;28;20077;-76
2024/03/19 00:25:46;;;;;;;3.30;2.60;;;;;;;;;;1028232;28;20041;-76
2024/03/19 00:26:16;;;;;;;1.83;1.67;;;;;;;;;;1024928;28;20085;-77
2024/03/19 00:26:47;;;;;;;1.83;1.13;;;;;;;;;;1025547;28;20054;-77
2024/03/19 00:27:18;;;;;;;1.40;1.30;;;;;;;;;;1029178;28;20442;-77
2024/03/19 00:27:48;;;;;;;4.18;3.40;;;;;;;;;;1025565;28;20023;-77
2024/03/19 00:28:19;;;;;;;2.70;2.35;;;;;;;;;;1029280;28;20033;-77
2024/03/19 00:28:49;;;;;;;23.05;3.38;;;;;;;;;;1029905;28;20064;-77
2024/03/19 00:29:20;;;;;;;2.25;2.08;;;;;;;;;;1027051;28;20034;-77
2024/03/19 00:29:51;;;;;;;8.00;5.75;;;;;;;;;;1031027;28;20026;-77
2024/03/19 00:30:21;;;;;;;3.33;2.72;;;;;;;;;;1025543;28;20524;-77
2024/03/19 00:30:52;;;;;;;1.70;1.55;;;;;;;;;;1026143;28;20030;-77
2024/03/19 00:31:23;;;;;;;3.10;2.08;;;;;;;;;;1025175;28;20023;-75
2024/03/19 00:31:54;;;;;;;7.93;3.35;;;;;;;;;;1025225;28;20023;-75
2024/03/19 00:32:25;;;;;;;11.90;4.60;;;;;;;;;;1030766;28;20034;-75
2024/03/19 00:32:55;;;;;;;4.07;2.95;;;;;;;;;;1037113;28;20565;-75
2024/03/19 00:33:29;;;;;;;3.85;2.88;;;;;;;;;;1026989;28;20030;-75
2024/03/19 00:34:00;;;;;;;2.40;1.13;;;;;;;;;;1027515;28;20106;-75
2024/03/19 00:34:30;;;;;;;2.55;1.42;;;;;;;;;;1029648;28;20498;-75
2024/03/19 00:35:01;;;;;;;2.53;1.50;;;;;;;;;;1027758;28;20019;-75
2024/03/19 00:35:32;;;;;;;5.30;3.20;;;;;;;;;;1033701;28;20454;-75
2024/03/19 00:36:06;;;;;;;2.28;2.17;;;;;;;;;;1034558;28;20084;-75
2024/03/19 00:36:37;;;;;;;3.20;2.05;;;;;;;;;;1025711;28;20038;-75
2024/03/19 00:37:07;;;;;;;5.22;2.63;;;;;;;;;;1028220;28;20438;-75
2024/03/19 00:37:42;;;;;;;2.58;2.38;;;;;;;;;;1028925;28;20018;-75
2024/03/19 00:38:13;;;;;;;1.45;1.35;;;;;;;;;;1027762;28;20030;-75
2024/03/19 00:38:43;;;;;;;2.63;2.08;;;;;;;;;;1029936;28;20404;-75
2024/03/19 00:39:14;;;;;;;1.48;1.38;;;;;;;;;;1028837;28;20113;-75
2024/03/19 00:39:44;;;;;;;21.13;2.38;;;;;;;;;;1029646;28;20083;-75
2024/03/19 00:40:15;;;;;;;2.65;2.45;;;;;;;;;;1027201;28;20037;-75
2024/03/19 00:40:45;;;;;;;3.65;1.00;;;;;;;;;;1025447;28;20024;-75
2024/03/19 00:41:16;;;;;;;0.10;0.10;;;;;;;;;;1027250;28;20028;-75
2024/03/19 00:41:46;;;;;;;1.80;1.45;;;;;;;;;;1029615;28;20081;-75
2024/03/19 00:42:17;;;;;;;1.00;0.98;;;;;;;;;;1025386;28;20023;-75
2024/03/19 00:42:47;;;;;;;1.10;1.00;;;;;;;;;;1035179;28;20018;-75
2024/03/19 00:43:18;;;;;;;6.22;2.72;;;;;;;;;;1024963;28;20121;-75
2024/03/19 00:43:48;;;;;;;2.20;2.00;;;;;;;;;;1024112;28;20093;-75
2024/03/19 00:44:19;;;;;;;1.55;0.63;;;;;;;;;;1029797;28;20105;-75
2024/03/19 00:44:49;;;;;;;1.48;1.20;;;;;;;;;;1025415;28;20025;-75
2024/03/19 00:45:20;;;;;;;0.98;0.98;;;;;;;;;;1028776;28;20160;-77
2024/03/19 00:45:50;;;;;;;1.90;1.80;;;;;;;;;;1025282;28;20022;-76
2024/03/19 00:46:20;;;;;;;0.73;0.70;;;;;;;;;;1024331;28;20078;-76
2024/03/19 00:46:51;;;;;;;1.13;1.02;;;;;;;;;;1025697;28;20031;-76
2024/03/19 00:47:21;;;;;;;2.15;2.00;;;;;;;;;;1025775;28;20026;-76
2024/03/19 00:47:52;;;;;;;0.98;0.98;;;;;;;;;;1029668;28;20871;-76
2024/03/19 00:48:22;;;;;;;0.90;0.82;;;;;;;;;;1032711;28;20491;-75
2024/03/19 00:48:53;;;;;;;3.83;1.48;;;;;;;;;;1033476;28;20383;-74
2024/03/19 00:49:23;;;;;;;2.17;1.13;;;;;;;;;;1034447;28;20022;-74
2024/03/19 00:49:55;;;;;;;2.25;2.10;;;;;;;;;;1033849;28;20026;-75
2024/03/19 00:50:26;;;;;;;3.97;1.08;;;;;;;;;;1032557;28;20030;-75
2024/03/19 00:50:56;;;;;;;1.73;1.15;;;;;;;;;;1033797;28;20026;-75
2024/03/19 00:51:27;;;;;;;2.53;2.33;;;;;;;;;;1034029;28;20113;-75
2024/03/19 00:51:57;;;;;;;2.72;1.85;;;;;;;;;;1031190;28;20026;-75
2024/03/19 00:52:28;;;;;;;2.38;1.55;;;;;;;;;;1032688;28;20010;-75
2024/03/19 00:52:58;;;;;;;1.75;1.65;;;;;;;;;;1032809;28;20034;-75
2024/03/19 00:53:29;;;;;;;9.77;3.58;;;;;;;;;;1033963;28;20046;-75
2024/03/19 00:53:59;;;;;;;19.38;3.13;;;;;;;;;;1033261;28;20061;-75
2024/03/19 00:54:30;;;;;;;0.73;0.73;;;;;;;;;;1026041;28;20097;-75
2024/03/19 00:55:04;;;;;;;1.65;0.85;;;;;;;;;;1027442;28;20053;-75
2024/03/19 00:55:35;;;;;;;0.77;0.77;;;;;;;;;;1025433;28;20074;-75
2024/03/19 00:56:06;;;;;;;0.55;0.55;;;;;;;;;;1026956;28;20033;-75
2024/03/19 00:56:36;;;;;;;1.52;1.42;;;;;;;;;;1030299;28;20061;-75
2024/03/19 00:57:07;;;;;;;1.65;1.48;;;;;;;;;;1029328;28;20112;-75
2024/03/19 00:57:37;;;;;;;7.05;3.33;;;;;;;;;;1027524;28;20025;-75
2024/03/19 00:58:08;;;;;;;0.65;0.65;;;;;;;;;;1032739;28;20014;-75
2024/03/19 00:58:38;;;;;;;2.33;1.83;;;;;;;;;;1034130;28;20030;-75
2024/03/19 00:59:09;;;;;;;3.47;3.08;;;;;;;;;;1024830;28;20443;-77
2024/03/19 00:59:39;;;;;;;3.40;1.65;;;;;;;;;;1025040;28;20438;-75
2024/03/19 01:00:14;;;;;;;8.02;3.47;;;;;;;;;;1026094;28;20034;-75
2024/03/19 01:00:46;;;;;;;1.20;1.10;;;;;;;;;;1028921;28;20028;-77
2024/03/19 01:01:16;;;;;;;2.47;1.15;;;;;;;;;;1031442;28;20030;-77
2024/03/19 01:01:47;;;;;;;1.95;0.50;;;;;;;;;;1032823;28;20015;-76
2024/03/19 01:02:17;;;;;;;0.52;0.52;;;;;;;;;;1027576;28;20514;-76
2024/03/19 01:02:48;;;;;;;0.10;0.10;;;;;;;;;;1030454;28;20105;-76
2024/03/19 01:03:20;;;;;;;4.28;1.40;;;;;;;;;;1027162;28;20398;-76
2024/03/19 01:03:52;;;;;;;7.18;2.30;;;;;;;;;;1023797;28;20031;-75
2024/03/19 01:04:23;;;;;;;0.90;0.90;;;;;;;;;;1023129;29;20046;-75
2024/03/19 01:04:53;;;;;;;3.83;1.63;;;;;;;;;;1021671;28;20066;-75
2024/03/19 01:05:25;;;;;;;0.63;0.63;;;;;;;;;;1024700;28;20031;-75
2024/03/19 01:05:55;;;;;;;1.20;0.93;;;;;;;;;;1025347;28;20471;-75
2024/03/19 01:06:26;;;;;;;0.50;0.50;;;;;;;;;;1027428;28;20109;-75
2024/03/19 01:06:56;;;;;;;0.43;0.43;;;;;;;;;;1025666;28;20038;-75
2024/03/19 01:07:29;;;;;;;1.85;1.65;;;;;;;;;;1029232;28;20023;-75
2024/03/19 01:08:00;;;;;;;0.28;0.28;;;;;;;;;;1029643;28;20026;-75
2024/03/19 01:08:30;;;;;;;3.15;1.25;;;;;;;;;;1027592;28;20352;-76
2024/03/19 01:09:01;;;;;;;0.57;0.57;;;;;;;;;;1025623;28;20034;-75
2024/03/19 01:09:32;;;;;;;1.70;0.80;;;;;;;;;;1025017;28;20061;-75
2024/03/19 01:10:03;;;;;;;2.15;1.60;;;;;;;;;;1029182;28;20027;-75
2024/03/19 01:10:34;;;;;;;0.50;0.50;;;;;;;;;;1028748;28;20471;-75
2024/03/19 01:11:04;;;;;;;3.05;1.08;;;;;;;;;;1026075;28;20027;-75
2024/03/19 01:11:35;;;;;;;0.35;0.35;;;;;;;;;;1025476;28;20018;-75
2024/03/19 01:12:08;;;;;;;0.20;0.20;;;;;;;;;;1027350;28;20108;-76
2024/03/19 01:12:39;;;;;;;2.33;2.22;;;;;;;;;;1028410;28;20023;-76
2024/03/19 01:13:10;;;;;;;1.10;0.98;;;;;;;;;;1031347;28;20056;-75
2024/03/19 01:13:41;;;;;;;0.40;0.40;;;;;;;;;;1033283;28;20025;-75
2024/03/19 01:14:11;;;;;;;0.57;0.50;;;;;;;;;;1027979;28;20101;-75
2024/03/19 01:14:42;;;;;;;3.40;1.30;;;;;;;;;;1028797;28;20121;-75
2024/03/19 01:15:12;;;;;;;1.20;1.17;;;;;;;;;;1028506;28;20030;-76
2024/03/19 01:15:43;;;;;;;2.35;2.17;;;;;;;;;;1027585;28;20033;-76
2024/03/19 01:16:13;;;;;;;3.63;2.30;;;;;;;;;;1027915;28;20050;-76
2024/03/19 01:16:44;;;;;;;1.17;1.05;;;;;;;;;;1029240;28;20015;-75
2024/03/19 01:17:14;;;;;;;0.25;0.25;;;;;;;;;;1031742;28;20073;-75
2024/03/19 01:17:45;;;;;;;7.35;2.10;;;;;;;;;;1033922;28;20026;-77
2024/03/19 01:18:15;;;;;;;4.00;1.02;;;;;;;;;;1031988;28;20029;-76
2024/03/19 01:18:46;;;;;;;0.45;0.40;;;;;;;;;;1029494;28;20019;-75
2024/03/19 01:19:16;;;;;;;0.77;0.77;;;;;;;;;;1028841;28;20022;-75
2024/03/19 01:19:47;;;;;;;0.63;0.63;;;;;;;;;;1029593;28;20026;-75
2024/03/19 01:20:17;;;;;;;7.00;2.08;;;;;;;;;;1033202;28;20081;-75
2024/03/19 01:20:48;;;;;;;1.05;0.70;;;;;;;;;;1034144;28;20021;-75
2024/03/19 01:21:18;;;;;;;0.98;0.93;;;;;;;;;;1033947;28;20025;-76
2024/03/19 01:21:49;;;;;;;1.02;0.90;;;;;;;;;;1029262;28;20022;-76
2024/03/19 01:22:19;;;;;;;0.57;0.57;;;;;;;;;;1029403;28;20053;-76
2024/03/19 01:22:50;;;;;;;6.15;3.80;;;;;;;;;;1029588;28;20506;-76
2024/03/19 01:23:21;;;;;;;16.23;2.67;;;;;;;;;;1029098;28;20034;-77
2024/03/19 01:23:52;;;;;;;6.13;2.60;;;;;;;;;;1028915;28;20014;-76
2024/03/19 01:24:23;;;;;;;2.78;2.05;;;;;;;;;;1024537;28;20038;-76
2024/03/19 01:24:54;;;;;;;3.65;2.47;;;;;;;;;;1022252;28;20072;-76
2024/03/19 01:25:24;;;;;;;1.73;1.23;;;;;;;;;;1025638;28;20023;-77
2024/03/19 01:25:55;;;;;;;5.95;2.90;;;;;;;;;;1029215;28;20037;-76
2024/03/19 01:26:25;;;;;;;2.97;2.75;;;;;;;;;;1031379;28;20117;-77
2024/03/19 01:26:56;;;;;;;4.15;2.83;;;;;;;;;;1029992;28;20050;-77
2024/03/19 01:27:27;;;;;;;1.25;1.05;;;;;;;;;;1028775;28;20153;-77
2024/03/19 01:27:58;;;;;;;4.18;1.83;;;;;;;;;;1028507;28;20832;-77
2024/03/19 01:28:28;;;;;;;3.65;2.55;;;;;;;;;;1028029;28;20049;-75
2024/03/19 01:28:59;;;;;;;1.00;0.82;;;;;;;;;;1025777;28;20105;-76
2024/03/19 01:29:30;;;;;;;1.73;1.52;;;;;;;;;;1024480;28;20034;-77
2024/03/19 01:30:01;;;;;;;1.17;0.95;;;;;;;;;;1029647;28;20446;-77
2024/03/19 01:30:32;;;;;;;1.42;1.33;;;;;;;;;;1027704;28;20031;-76
2024/03/19 01:31:02;;;;;;;0.77;0.77;;;;;;;;;;1032114;28;20036;-75
2024/03/19 01:31:33;;;;;;;5.20;1.67;;;;;;;;;;1032897;28;20029;-76
2024/03/19 01:32:04;;;;;;;16.00;3.13;;;;;;;;;;1028018;28;20030;-76
2024/03/19 01:32:36;;;;;;;3.13;1.42;;;;;;;;;;1028487;28;20126;-78
2024/03/19 01:33:06;;;;;;;2.10;2.00;;;;;;;;;;1027436;28;20038;-77
2024/03/19 01:33:36;;;;;;;0.57;0.57;;;;;;;;;;1025406;28;20478;-77
2024/03/19 01:34:07;;;;;;;4.32;3.50;;;;;;;;;;1028618;28;20030;-77
2024/03/19 01:34:38;;;;;;;9.80;3.13;;;;;;;;;;1027224;28;20026;-77
2024/03/19 01:35:09;;;;;;;0.68;0.65;;;;;;;;;;1028769;28;20037;-77
2024/03/19 01:35:40;;;;;;;4.15;3.60;;;;;;;;;;1027981;28;20026;-78
2024/03/19 01:36:12;;;;;;;4.15;3.03;;;;;;;;;;1023778;28;20506;-78
2024/03/19 01:36:46;;;;;;;2.10;1.30;;;;;;;;;;1019924;28;20039;-77
2024/03/19 01:37:17;;;;;;;3.92;2.13;;;;;;;;;;1017036;28;20028;-75
2024/03/19 01:37:47;;;;;;;4.65;3.42;;;;;;;;;;1019718;29;20031;-76
2024/03/19 01:38:18;;;;;;;7.63;4.15;;;;;;;;;;1022643;28;20093;-76
2024/03/19 01:38:49;;;;;;;2.67;1.83;;;;;;;;;;1026387;28;20078;-76
2024/03/19 01:39:22;;;;;;;7.13;3.78;;;;;;;;;;1028813;28;20030;-76
2024/03/19 01:39:52;;;;;;;4.13;1.88;;;;;;;;;;1029857;28;20038;-78
2024/03/19 01:40:23;;;;;;;7.28;1.95;;;;;;;;;;1033042;28;20426;-76
2024/03/19 01:40:53;;;;;;;4.68;4.00;;;;;;;;;;1032975;28;20104;-76
2024/03/19 01:41:24;;;;;;;12.18;4.60;;;;;;;;;;1028449;28;20030;-76
2024/03/19 01:41:55;;;;;;;5.50;4.07;;;;;;;;;;1029093;28;20035;-77
2024/03/19 01:42:26;;;;;;;6.13;4.20;;;;;;;;;;1028879;28;20051;-77
2024/03/19 01:42:58;;;;;;;32.08;4.57;;;;;;;;;;1029466;28;20030;-76
2024/03/19 01:43:30;;;;;;;5.30;4.32;;;;;;;;;;1032364;28;20041;-77
2024/03/19 01:44:00;;;;;;;3.83;1.23;;;;;;;;;;1031733;28;20045;-77
2024/03/19 01:44:31;;;;;;;8.50;3.95;;;;;;;;;;1026728;28;20034;-78
2024/03/19 01:45:07;;;;;;;3.58;2.00;;;;;;;;;;1027247;28;20027;-78
2024/03/19 01:45:38;;;;;;;5.97;2.60;;;;;;;;;;1030455;28;20030;-76
2024/03/19 01:46:09;;;;;;;7.72;3.50;;;;;;;;;;1027933;28;20038;-77
2024/03/19 01:46:40;;;;;;;13.80;2.33;;;;;;;;;;1026126;28;20027;-76
2024/03/19 01:47:11;;;;;;;6.32;3.13;;;;;;;;;;1027027;28;20549;-77
2024/03/19 01:47:42;;;;;;;5.97;4.20;;;;;;;;;;1028943;28;20357;-77
2024/03/19 01:48:12;;;;;;;1.52;1.30;;;;;;;;;;1033318;28;20030;-77
2024/03/19 01:48:43;;;;;;;8.52;3.55;;;;;;;;;;1033122;28;20029;-77
2024/03/19 01:49:14;;;;;;;2.72;1.35;;;;;;;;;;1028638;28;20033;-77
2024/03/19 01:49:45;;;;;;;3.90;1.92;;;;;;;;;;1029641;28;20042;-77
2024/03/19 01:50:16;;;;;;;6.47;2.13;;;;;;;;;;1029301;28;20027;-77
2024/03/19 01:50:47;;;;;;;11.50;1.48;;;;;;;;;;1027951;28;20038;-77
2024/03/19 01:51:19;;;;;;;16.95;6.93;;;;;;;;;;1028844;28;20030;-76
2024/03/19 01:51:51;;;;;;;1.83;1.30;;;;;;;;;;1029282;28;20022;-77
2024/03/19 01:52:21;;;;;;;1.38;1.33;;;;;;;;;;1021826;29;20035;-77
2024/03/19 01:52:52;;;;;;;26.98;3.75;;;;;;;;;;1025849;28;20027;-77
2024/03/19 01:53:23;;;;;;;6.53;2.80;;;;;;;;;;1026305;28;20086;-77
2024/03/19 01:53:55;;;;;;;2.03;1.85;;;;;;;;;;1022352;28;20443;-77
2024/03/19 01:54:26;;;;;;;1.83;1.40;;;;;;;;;;1024256;28;20055;-77
2024/03/19 01:54:58;;;;;;;5.50;3.00;;;;;;;;;;1024972;28;20529;-77
2024/03/19 01:55:29;;;;;;;7.70;6.22;;;;;;;;;;1030462;28;20506;-77
2024/03/19 01:56:00;;;;;;;19.05;9.40;;;;;;;;;;1029205;28;20422;-77
2024/03/19 01:56:31;;;;;;;5.47;3.88;;;;;;;;;;1028956;28;20106;-77
2024/03/19 01:57:02;;;;;;;3.78;2.75;;;;;;;;;;1026630;28;20027;-77
2024/03/19 01:57:33;;;;;;;4.85;3.58;;;;;;;;;;1028994;28;20022;-77
2024/03/19 01:58:04;;;;;;;12.00;5.20;;;;;;;;;;1024851;28;20057;-78
2024/03/19 01:58:36;;;;;;;0.85;0.85;;;;;;;;;;1026160;28;20515;-78
2024/03/19 01:59:08;;;;;;;7.35;2.05;;;;;;;;;;1028637;28;20075;-77
2024/03/19 01:59:39;;;;;;;6.93;2.63;;;;;;;;;;1029894;28;20467;-75
2024/03/19 02:00:09;;;;;;;1.83;1.70;;;;;;;;;;1033711;28;20192;-76
2024/03/19 02:00:40;;;;;;;3.35;2.10;;;;;;;;;;1031575;28;20057;-77
2024/03/19 02:01:10;;;;;;;1.02;0.95;;;;;;;;;;1031207;28;20113;-77
2024/03/19 02:01:41;;;;;;;1.67;1.58;;;;;;;;;;1031456;28;20026;-76
2024/03/19 02:02:30;;;;;;;4.18;2.30;;;;;;;;;;1028881;28;20026;-76
2024/03/19 02:03:01;;;;;;;0.43;0.43;;;;;;;;;;1033904;28;20048;-76
2024/03/19 02:03:34;;;;;;;2.88;2.40;;;;;;;;;;1033979;28;20450;-76
2024/03/19 02:04:05;;;;;;;7.03;5.68;;;;;;;;;;1029086;28;20486;-76
2024/03/19 02:04:36;;;;;;;2.55;2.35;;;;;;;;;;1028200;28;20030;-75
2024/03/19 02:05:08;;;;;;;4.20;3.10;;;;;;;;;;1026923;28;20031;-76
2024/03/19 02:05:39;;;;;;;1.48;1.38;;;;;;;;;;1020270;29;20476;-76
2024/03/19 02:06:11;;;;;;;7.05;2.28;;;;;;;;;;1019719;29;20059;-75
2024/03/19 02:06:42;;;;;;;2.90;2.70;;;;;;;;;;1021998;28;20031;-76
2024/03/19 02:07:13;;;;;;;1.88;1.75;;;;;;;;;;1024798;28;20031;-76
2024/03/19 02:07:45;;;;;;;4.47;2.20;;;;;;;;;;1020625;29;20028;-77
2024/03/19 02:08:16;;;;;;;3.40;2.50;;;;;;;;;;1021561;28;20034;-77
2024/03/19 02:08:57;;;;;;;2.72;2.55;;;;;;;;;;1025974;28;20594;-76
2024/03/19 02:09:29;;;;;;;26.65;2.45;;;;;;;;;;1026514;28;20121;-76
2024/03/19 02:10:00;;;;;;;3.35;1.48;;;;;;;;;;1024809;28;20453;-76
2024/03/19 02:10:32;;;;;;;1.63;1.52;;;;;;;;;;1023749;28;20030;-76
2024/03/19 02:11:03;;;;;;;4.13;3.60;;;;;;;;;;1025513;28;20026;-76
2024/03/19 02:11:34;;;;;;;4.93;2.50;;;;;;;;;;1027369;28;20027;-77
2024/03/19 02:12:08;;;;;;;13.63;5.65;;;;;;;;;;1028900;28;20133;-76
2024/03/19 02:12:39;;;;;;;2.80;2.55;;;;;;;;;;1029019;28;20023;-77
2024/03/19 02:13:10;;;;;;;4.88;3.00;;;;;;;;;;1025387;28;20058;-77
2024/03/19 02:13:42;;;;;;;10.98;3.63;;;;;;;;;;1028785;28;20472;-75
2024/03/19 02:14:13;;;;;;;2.22;2.13;;;;;;;;;;1026395;28;20019;-75
2024/03/19 02:14:45;;;;;;;27.85;3.95;;;;;;;;;;1027466;28;20026;-76
2024/03/19 02:15:16;;;;;;;3.03;2.13;;;;;;;;;;1028246;28;20207;-75
2024/03/19 02:15:50;;;;;;;2.67;1.60;;;;;;;;;;1031815;28;20034;-75
2024/03/19 02:16:21;;;;;;;11.93;3.60;;;;;;;;;;1029323;28;20030;-78
2024/03/19 02:16:53;;;;;;;7.93;2.90;;;;;;;;;;1028786;28;20027;-77
2024/03/19 02:17:25;;;;;;;6.05;2.47;;;;;;;;;;1028190;28;20129;-76
2024/03/19 02:17:57;;;;;;;12.18;5.53;;;;;;;;;;1029885;28;20045;-78
2024/03/19 02:18:29;;;;;;;5.63;3.72;;;;;;;;;;1029029;28;20019;-78
2024/03/19 02:19:06;;;;;;;6.75;5.57;;;;;;;;;;1027849;28;20142;-78
2024/03/19 02:19:38;;;;;;;7.78;4.78;;;;;;;;;;1029047;28;20022;-77
2024/03/19 02:20:15;;;;;;;7.70;2.67;;;;;;;;;;1028631;28;20018;-77
2024/03/19 02:20:46;;;;;;;6.38;3.65;;;;;;;;;;1030166;28;20561;-77
2024/03/19 02:21:17;;;;;;;12.52;2.40;;;;;;;;;;1028760;28;20046;-77
2024/03/19 02:21:48;;;;;;;9.88;6.45;;;;;;;;;;1029577;28;20018;-77
2024/03/19 02:22:21;;;;;;;11.18;5.15;;;;;;;;;;1025295;28;20030;-77
2024/03/19 02:22:55;;;;;;;4.50;3.63;;;;;;;;;;1024515;28;20451;-77
2024/03/19 02:23:29;;;;;;;2.58;2.17;;;;;;;;;;1030425;28;20036;-77
2024/03/19 02:24:00;;;;;;;9.40;3.95;;;;;;;;;;1030361;28;20049;-78
2024/03/19 02:24:31;;;;;;;2.45;2.25;;;;;;;;;;1027897;28;20986;-77
2024/03/19 02:25:03;;;;;;;3.80;2.45;;;;;;;;;;1029004;28;20068;-77
2024/03/19 02:25:34;;;;;;;7.28;5.35;;;;;;;;;;1024673;28;20435;-77
2024/03/19 02:26:07;;;;;;;9.45;3.30;;;;;;;;;;1030185;28;20034;-77
2024/03/19 02:26:38;;;;;;;19.73;2.72;;;;;;;;;;1024407;28;20035;-77
2024/03/19 02:27:10;;;;;;;3.03;2.70;;;;;;;;;;1021413;28;20228;-76
2024/03/19 02:27:41;;;;;;;12.48;4.40;;;;;;;;;;1025307;28;20056;-77
2024/03/19 02:28:12;;;;;;;8.88;3.58;;;;;;;;;;1025501;28;20034;-76
2024/03/19 02:28:44;;;;;;;5.80;3.88;;;;;;;;;;1027662;28;20058;-76
2024/03/19 02:29:15;;;;;;;3.40;2.13;;;;;;;;;;1029758;28;20572;-77
2024/03/19 02:29:46;;;;;;;5.35;4.03;;;;;;;;;;1028082;28;20034;-77
2024/03/19 02:30:17;;;;;;;2.63;2.42;;;;;;;;;;1028650;28;20033;-76
2024/03/19 02:30:48;;;;;;;5.20;2.20;;;;;;;;;;1029142;28;20167;-76
2024/03/19 02:31:19;;;;;;;6.70;4.57;;;;;;;;;;1024995;28;20161;-76
2024/03/19 02:31:51;;;;;;;6.60;3.72;;;;;;;;;;1026820;28;20038;-77
2024/03/19 02:32:21;;;;;;;24.70;5.63;;;;;;;;;;1022164;28;20031;-76
2024/03/19 02:32:53;;;;;;;8.02;5.35;;;;;;;;;;1023136;28;20023;-77
2024/03/19 02:33:24;;;;;;;13.15;3.97;;;;;;;;;;1024441;28;20389;-77
2024/03/19 02:33:56;;;;;;;10.02;4.43;;;;;;;;;;1026320;28;20118;-78
2024/03/19 02:34:29;;;;;;;24.45;4.05;;;;;;;;;;1026388;28;20022;-77
2024/03/19 02:35:00;;;;;;;2.80;0.80;;;;;;;;;;1025640;28;20039;-76
2024/03/19 02:35:31;;;;;;;4.85;3.08;;;;;;;;;;1026399;28;20042;-77
2024/03/19 02:36:02;;;;;;;3.55;2.78;;;;;;;;;;1029775;28;20644;-76
2024/03/19 02:36:35;;;;;;;8.25;2.80;;;;;;;;;;1025524;28;20027;-77
2024/03/19 02:37:07;;;;;;;4.30;2.55;;;;;;;;;;1025288;28;20030;-77
2024/03/19 02:37:39;;;;;;;2.15;1.92;;;;;;;;;;1027180;28;20023;-77
2024/03/19 02:38:11;;;;;;;18.40;6.78;;;;;;;;;;1030171;28;20019;-77
2024/03/19 02:38:43;;;;;;;14.15;1.92;;;;;;;;;;1027751;28;20116;-77
2024/03/19 02:39:15;;;;;;;9.27;2.83;;;;;;;;;;1027149;28;20445;-77
2024/03/19 02:39:51;;;;;;;7.65;3.53;;;;;;;;;;1029553;28;20109;-77
2024/03/19 02:40:24;;;;;;;12.77;4.15;;;;;;;;;;1029557;28;20165;-78
2024/03/19 02:40:55;;;;;;;4.72;3.30;;;;;;;;;;1031965;28;20387;-78
2024/03/19 02:41:27;;;;;;;4.63;2.47;;;;;;;;;;1027174;28;20050;-78
2024/03/19 02:41:59;;;;;;;3.80;2.50;;;;;;;;;;1025578;28;20081;-77
2024/03/19 02:42:30;;;;;;;0.90;0.90;;;;;;;;;;1024145;28;20479;-77
2024/03/19 02:43:02;;;;;;;2.80;2.60;;;;;;;;;;1022346;28;20118;-77
2024/03/19 02:43:36;;;;;;;3.72;2.00;;;;;;;;;;1030452;28;20098;-77
2024/03/19 02:44:07;;;;;;;5.72;3.13;;;;;;;;;;1030127;28;20526;-77
2024/03/19 02:44:39;;;;;;;5.93;4.22;;;;;;;;;;1031645;28;20075;-77
2024/03/19 02:45:14;;;;;;;4.80;2.97;;;;;;;;;;1028029;28;20126;-77
2024/03/19 02:45:49;;;;;;;2.13;2.03;;;;;;;;;;1028769;28;20094;-77
2024/03/19 02:46:24;;;;;;;2.55;2.35;;;;;;;;;;1021767;28;20645;-77
2024/03/19 02:46:58;;;;;;;7.85;3.28;;;;;;;;;;1020228;29;20047;-76
2024/03/19 02:47:31;;;;;;;11.50;5.13;;;;;;;;;;1020811;29;20200;-77
2024/03/19 02:48:02;;;;;;;3.20;1.85;;;;;;;;;;1019455;28;20056;-77
2024/03/19 02:48:37;;;;;;;2.10;0.90;;;;;;;;;;1022323;28;20173;-76
2024/03/19 02:49:12;;;;;;;2.47;2.28;;;;;;;;;;1017448;28;20169;-77
2024/03/19 02:50:23;;;;;;;12.80;4.47;;;;;;;;;;1033106;28;20049;-78
2024/03/19 02:50:57;;;;;;;4.03;2.55;;;;;;;;;;1033632;28;20044;-78
2024/03/19 02:51:33;;;;;;;2.60;2.40;;;;;;;;;;1028809;28;20042;-78
2024/03/19 02:52:08;;;;;;;2.70;1.52;;;;;;;;;;1026949;28;20073;-77
2024/03/19 02:52:50;;;;;;;2.28;1.98;;;;;;;;;;1025781;28;20042;-77
2024/03/19 02:53:22;;;;;;;2.47;2.00;;;;;;;;;;1025129;28;20066;-78
2024/03/19 02:53:54;;;;;;;4.55;3.53;;;;;;;;;;1024958;28;20038;-76
2024/03/19 02:54:36;;;;;;;1.20;0.93;;;;;;;;;;1027646;28;20463;-77
2024/03/19 02:55:11;;;;;;;19.50;2.42;;;;;;;;;;1030071;28;20038;-77
2024/03/19 02:55:48;;;;;;;4.85;2.38;;;;;;;;;;1041985;23;20385;-77
2024/03/19 02:56:20;;;;;;;5.20;2.10;;;;;;;;;;1025371;28;20027;-79
2024/03/19 02:56:55;;;;;;;5.30;2.72;;;;;;;;;;1019881;28;20074;-79
2024/03/19 02:57:34;;;;;;;1.20;1.00;;;;;;;;;;1019784;28;20229;-78
2024/03/19 02:58:17;;;;;;;1.55;1.23;;;;;;;;;;1026976;28;20267;-78
2024/03/19 03:00:08;;;;;;;11.20;4.40;;;;;;;;;;1026755;28;20030;-77
2024/03/19 03:00:57;;;;;;;1.65;1.52;;;;;;;;;;1025514;28;20062;-77
2024/03/19 03:01:34;;;;;;;7.05;2.45;;;;;;;;;;1022738;28;20739;-76
2024/03/19 03:02:12;;;;;;;2.63;1.20;;;;;;;;;;1017199;28;20039;-77
2024/03/19 03:02:44;;;;;;;0.52;0.38;;;;;;;;;;1019692;28;20558;-77
2024/03/19 03:03:20;;;;;;;0.75;0.75;;;;;;;;;;1017288;29;20066;-77
2024/03/19 03:03:56;;;;;;;7.35;3.33;;;;;;;;;;1016520;29;20027;-77
2024/03/19 03:04:30;;;;;;;1.38;1.27;;;;;;;;;;1018148;28;20445;-77
2024/03/19 03:05:02;;;;;;;3.15;2.85;;;;;;;;;;1019769;28;21111;-78
2024/03/19 03:05:45;;;;;;;6.07;2.22;;;;;;;;;;1022627;28;20050;-77
2024/03/19 03:08:12;;;;;;;;;;;;;;;;;;1259242;23;20036;-79
2024/03/19 03:08:43;;;;;;;3.33;2.22;;;;;;;;;;1040935;28;19920;-78
2024/03/19 03:09:14;;;;;;;3.30;2.25;;;;;;;;;;1039557;28;20126;-78
2024/03/19 03:09:45;;;;;;;7.85;4.50;;;;;;;;;;1051892;23;20367;-77
2024/03/19 03:10:17;;;;;;;1.77;1.67;;;;;;;;;;1036005;28;20572;-78
2024/03/19 03:10:48;;;;;;;5.07;2.60;;;;;;;;;;1033921;28;20053;-78
2024/03/19 03:11:18;;;;;;;2.40;2.13;;;;;;;;;;1033098;28;20081;-78
2024/03/19 03:11:49;;;;;;;6.25;2.47;;;;;;;;;;1031893;28;20034;-78
2024/03/19 03:12:20;;;;;;;14.48;5.28;;;;;;;;;;1032909;28;20109;-79
2024/03/19 03:12:50;;;;;;;1.38;1.27;;;;;;;;;;1035478;28;20034;-77